Time;durP1;ratioP1;P1;durP2;ratioP2;P2;SDS_P1;SDS_P2;PMS_P1;PMS_P2;Temp;Humidity;BMP_temperature;BMP_pressure;BME280_temperature;BME280_humidity;BME280_pressure;Samples;Min_cycle;Max_cycle;Signal;HPM_P1;HPM_P2
2022/03/31 00:01:30;;;;;;;;;;;;;;;27.01;23.68;99888.00;5019173;28;805;-46
2022/03/31 00:03:56;;;;;;;;;;;;;;;26.98;23.40;99875.75;5018728;28;1973;-46
2022/03/31 00:06:21;;;;;;;;;;;;;;;26.86;23.66;99870.09;5018994;28;767;-46
2022/03/31 00:08:46;;;;;;;;;;;;;;;26.96;23.72;99864.31;5025558;28;899;-45
2022/03/31 00:11:12;;;;;;;;;;;;;;;27.09;23.66;99865.44;5018549;28;746;-46
2022/03/31 00:13:37;;;;;;;;;;;;;;;27.10;23.78;99867.09;5018107;28;1011;-45
2022/03/31 00:16:03;;;;;;;;;;;;;;;27.05;23.49;99870.41;5018307;28;873;-46
2022/03/31 00:18:29;;;;;;;;;;;;;;;27.07;23.45;99870.19;5018663;28;813;-45
2022/03/31 00:20:55;;;;;;;;;;;;;;;27.13;23.44;99861.28;5026393;28;817;-45
2022/03/31 00:23:20;;;;;;;;;;;;;;;27.10;23.72;99859.84;5037392;28;854;-45
2022/03/31 00:25:45;;;;;;;;;;;;;;;27.05;23.86;99861.47;5036795;28;1906;-45
2022/03/31 00:28:11;;;;;;;;;;;;;;;27.00;23.83;99846.69;5037482;28;788;-45
2022/03/31 00:30:36;;;;;;;;;;;;;;;27.08;23.82;99850.25;5037113;28;845;-45
2022/03/31 00:33:01;;;;;;;;;;;;;;;27.14;23.53;99849.47;5036961;28;971;-45
2022/03/31 00:35:27;;;;;;;;;;;;;;;27.02;23.80;99841.97;5020839;28;817;-45
2022/03/31 00:37:52;;;;;;;;;;;;;;;26.90;23.93;99839.00;5017191;28;1006;-45
2022/03/31 00:40:18;;;;;;;;;;;;;;;27.00;23.70;99838.59;5023053;28;895;-45
2022/03/31 00:42:51;;;;;;;;;;;;;;;27.05;23.92;99827.22;5018015;28;889;-45
2022/03/31 00:45:17;;;;;;;;;;;;;;;26.97;23.76;99821.97;5016554;28;1894;-45
2022/03/31 00:47:42;;;;;;;;;;;;;;;26.81;24.14;99817.81;5019823;28;841;-45
2022/03/31 00:50:08;;;;;;;;;;;;;;;26.94;23.65;99817.00;5017998;28;746;-45
2022/03/31 00:52:34;;;;;;;;;;;;;;;26.94;23.75;99808.91;5018085;28;727;-45
2022/03/31 00:54:59;;;;;;;;;;;;;;;26.94;23.76;99809.75;5021032;28;809;-45
2022/03/31 00:57:25;;;;;;;;;;;;;;;26.96;23.93;99810.34;5017835;28;758;-45
2022/03/31 00:59:50;;;;;;;;;;;;;;;26.98;23.70;99808.28;5022977;28;818;-44
2022/03/31 01:02:15;;;;;;;;;;;;;;;26.97;23.92;99809.34;5017675;28;878;-45
2022/03/31 01:04:41;;;;;;;;;;;;;;;26.95;23.80;99802.47;5017836;28;1890;-45
2022/03/31 01:07:06;;;;;;;;;;;;;;;26.94;24.00;99798.94;5017409;28;830;-45
2022/03/31 01:09:32;;;;;;;;;;;;;;;26.94;23.68;99796.25;5019519;28;829;-45
2022/03/31 01:11:58;;;;;;;;;;;;;;;26.97;23.83;99805.78;5018775;28;770;-45
2022/03/31 01:14:23;;;;;;;;;;;;;;;27.05;23.95;99804.78;5017358;28;762;-45
2022/03/31 01:16:49;;;;;;;;;;;;;;;26.99;23.79;99809.94;5017744;28;968;-45
2022/03/31 01:19:14;;;;;;;;;;;;;;;26.96;23.76;99814.94;5017363;28;925;-45
2022/03/31 01:21:40;;;;;;;;;;;;;;;26.94;23.89;99812.44;5017550;28;723;-45
2022/03/31 01:24:06;;;;;;;;;;;;;;;26.94;23.81;99814.31;5021593;28;1985;-45
2022/03/31 01:26:32;;;;;;;;;;;;;;;26.92;24.16;99805.56;5018123;28;878;-45
2022/03/31 01:28:57;;;;;;;;;;;;;;;27.04;23.78;99813.94;5017025;28;1568;-45
2022/03/31 01:31:23;;;;;;;;;;;;;;;26.94;23.82;99804.34;5017436;28;810;-45
2022/03/31 01:33:48;;;;;;;;;;;;;;;26.97;24.12;99811.19;5016825;28;901;-45
2022/03/31 01:36:14;;;;;;;;;;;;;;;26.86;23.97;99807.25;5017045;28;871;-45
2022/03/31 01:38:39;;;;;;;;;;;;;;;26.95;23.74;99806.00;5020299;28;1264;-45
2022/03/31 01:41:05;;;;;;;;;;;;;;;26.84;23.80;99799.31;5019994;28;837;-45
2022/03/31 01:43:30;;;;;;;;;;;;;;;26.85;24.07;99795.59;5016745;28;979;-45
2022/03/31 01:45:56;;;;;;;;;;;;;;;26.87;24.17;99796.25;5014969;28;1937;-45
2022/03/31 01:48:21;;;;;;;;;;;;;;;26.89;24.19;99809.53;5031055;28;810;-45
2022/03/31 01:50:47;;;;;;;;;;;;;;;26.97;23.92;99805.78;5027441;28;757;-45
2022/03/31 01:53:14;;;;;;;;;;;;;;;26.84;23.88;99804.72;5016585;28;834;-45
2022/03/31 01:55:40;;;;;;;;;;;;;;;26.70;24.39;99795.78;5019694;28;996;-45
2022/03/31 01:58:06;;;;;;;;;;;;;;;26.78;23.92;99795.59;5016763;28;750;-45
2022/03/31 02:00:31;;;;;;;;;;;;;;;26.80;24.11;99791.84;5030538;28;949;-45
2022/03/31 02:02:57;;;;;;;;;;;;;;;26.78;24.20;99800.16;5028386;28;900;-45
2022/03/31 02:05:22;;;;;;;;;;;;;;;26.84;24.24;99793.13;5016616;28;1957;-45
2022/03/31 02:07:47;;;;;;;;;;;;;;;26.84;24.32;99807.41;5016663;28;870;-45
2022/03/31 02:10:13;;;;;;;;;;;;;;;26.84;23.83;99810.13;5016515;28;948;-46
2022/03/31 02:12:38;;;;;;;;;;;;;;;26.70;24.19;99817.34;5016830;28;758;-45
2022/03/31 02:15:04;;;;;;;;;;;;;;;26.83;23.96;99813.00;5025602;28;1423;-45
2022/03/31 02:17:30;;;;;;;;;;;;;;;26.76;23.89;99808.44;5035049;28;815;-45
2022/03/31 02:19:55;;;;;;;;;;;;;;;26.82;24.11;99803.28;5035258;28;861;-45
2022/03/31 02:22:22;;;;;;;;;;;;;;;26.82;23.86;99805.97;5033883;28;810;-46
2022/03/31 02:24:48;;;;;;;;;;;;;;;26.74;24.04;99796.19;5030687;28;1959;-45
2022/03/31 02:27:13;;;;;;;;;;;;;;;26.78;24.08;99795.59;5016528;28;885;-45
2022/03/31 02:29:38;;;;;;;;;;;;;;;26.85;23.94;99802.84;5018688;28;893;-45
2022/03/31 02:32:04;;;;;;;;;;;;;;;26.81;24.10;99796.22;5016621;28;837;-45
2022/03/31 02:34:29;;;;;;;;;;;;;;;26.75;24.06;99805.94;5016484;28;781;-45
2022/03/31 02:36:55;;;;;;;;;;;;;;;26.77;24.02;99793.09;5016344;28;832;-45
2022/03/31 02:39:20;;;;;;;;;;;;;;;26.69;24.16;99794.13;5021133;28;1187;-46
2022/03/31 02:41:45;;;;;;;;;;;;;;;26.71;24.18;99800.13;5022216;28;1163;-45
2022/03/31 02:44:11;;;;;;;;;;;;;;;26.67;24.07;99800.75;5034742;28;1963;-45
2022/03/31 02:46:37;;;;;;;;;;;;;;;26.82;23.71;99792.47;5027945;28;807;-45
2022/03/31 02:49:02;;;;;;;;;;;;;;;26.70;24.40;99794.94;5016492;28;754;-45
2022/03/31 02:51:27;;;;;;;;;;;;;;;26.61;24.20;99791.59;5022774;28;1260;-44
2022/03/31 02:56:37;;;;;;;;;;;;;;;27.33;23.88;99798.38;5015793;28;703;-45
2022/03/31 02:59:02;;;;;;;;;;;;;;;27.62;23.59;99791.72;5016268;28;862;-45
2022/03/31 03:01:27;;;;;;;;;;;;;;;27.35;23.43;99777.41;5020194;28;734;-45
2022/03/31 03:03:58;;;;;;;;;;;;;;;26.95;23.98;99772.78;5020818;28;871;-44
2022/03/31 03:06:23;;;;;;;;;;;;;;;27.12;24.42;99767.84;5036939;28;1886;-44
2022/03/31 03:08:48;;;;;;;;;;;;;;;27.96;22.98;99774.63;5021466;28;1554;-44
2022/03/31 03:11:15;;;;;;;;;;;;;;;27.32;23.29;99785.91;5019513;28;802;-44
2022/03/31 03:13:40;;;;;;;;;;;;;;;27.58;23.01;99800.44;5019985;28;801;-44
2022/03/31 03:16:08;;;;;;;;;;;;;;;27.51;23.43;99803.13;5020133;28;812;-44
2022/03/31 03:18:36;;;;;;;;;;;;;;;27.38;23.61;99801.28;5025223;28;846;-44
2022/03/31 03:21:02;;;;;;;;;;;;;;;27.36;23.64;99792.56;5027945;28;1521;-45
2022/03/31 03:23:27;;;;;;;;;;;;;;;27.26;23.43;99796.50;5018905;28;774;-45
2022/03/31 03:25:53;;;;;;;;;;;;;;;27.09;24.04;99806.06;5024681;28;1961;-45
2022/03/31 03:28:18;;;;;;;;;;;;;;;26.99;23.88;99799.13;5019652;28;917;-44
2022/03/31 03:30:43;;;;;;;;;;;;;;;26.79;24.21;99793.72;5023119;28;1211;-44
2022/03/31 03:33:09;;;;;;;;;;;;;;;26.71;24.30;99805.53;5025734;28;1468;-43
2022/03/31 03:35:34;;;;;;;;;;;;;;;26.63;24.06;99806.53;5033096;28;814;-44
2022/03/31 03:37:59;;;;;;;;;;;;;;;26.67;24.35;99801.59;5038280;28;1190;-44
2022/03/31 03:40:25;;;;;;;;;;;;;;;26.80;24.03;99810.72;5025826;28;936;-44
2022/03/31 03:42:50;;;;;;;;;;;;;;;26.67;24.06;99804.28;5019555;28;817;-44
2022/03/31 03:45:16;;;;;;;;;;;;;;;26.64;24.26;99802.00;5022920;28;1983;-44
2022/03/31 03:47:42;;;;;;;;;;;;;;;26.60;24.25;99792.63;5019234;28;778;-43
2022/03/31 03:50:07;;;;;;;;;;;;;;;26.35;24.70;99795.84;5018765;28;822;-43
2022/03/31 03:52:33;;;;;;;;;;;;;;;26.40;24.39;99796.09;5023493;28;1429;-44
2022/03/31 03:54:58;;;;;;;;;;;;;;;25.22;25.30;99780.38;5027435;28;1315;-43
2022/03/31 03:57:23;;;;;;;;;;;;;;;24.87;26.07;99788.31;5032553;28;1319;-43
2022/03/31 03:59:49;;;;;;;;;;;;;;;24.58;26.22;99778.28;5022859;28;1646;-43
2022/03/31 04:02:14;;;;;;;;;;;;;;;24.42;26.67;99763.19;5031949;28;819;-43
2022/03/31 04:04:39;;;;;;;;;;;;;;;24.66;26.38;99760.34;5031450;28;1965;-43
2022/03/31 04:07:05;;;;;;;;;;;;;;;24.64;26.36;99757.03;5018326;28;1010;-43
2022/03/31 04:09:30;;;;;;;;;;;;;;;24.80;26.15;99767.56;5025311;28;909;-43
2022/03/31 04:11:55;;;;;;;;;;;;;;;24.79;26.22;99757.81;5030215;28;718;-43
2022/03/31 04:14:21;;;;;;;;;;;;;;;24.83;26.19;99774.41;5037315;28;895;-43
2022/03/31 04:16:47;;;;;;;;;;;;;;;24.73;26.51;99779.25;5038042;28;790;-43
2022/03/31 04:19:12;;;;;;;;;;;;;;;24.79;26.87;99782.00;5027453;28;1191;-43
2022/03/31 04:21:37;;;;;;;;;;;;;;;24.85;26.84;99771.50;5018458;28;753;-43
2022/03/31 04:24:03;;;;;;;;;;;;;;;24.50;27.49;99775.72;5022321;28;833;-43
2022/03/31 04:26:28;;;;;;;;;;;;;;;24.58;27.30;99772.91;5017774;28;1906;-43
2022/03/31 04:28:54;;;;;;;;;;;;;;;24.61;27.64;99792.38;5018200;28;881;-42
2022/03/31 04:31:19;;;;;;;;;;;;;;;24.56;27.85;99787.53;5017965;28;874;-43
2022/03/31 04:33:44;;;;;;;;;;;;;;;24.70;27.45;99786.69;5017939;28;1417;-44
2022/03/31 04:36:09;;;;;;;;;;;;;;;24.60;27.79;99791.53;5022900;28;799;-43
2022/03/31 04:38:35;;;;;;;;;;;;;;;24.59;28.02;99789.84;5019010;28;1243;-43
2022/03/31 04:41:00;;;;;;;;;;;;;;;24.54;28.17;99793.13;5023964;28;909;-44
2022/03/31 04:43:25;;;;;;;;;;;;;;;24.43;28.26;99791.75;5017787;28;1426;-43
2022/03/31 04:45:51;;;;;;;;;;;;;;;24.52;28.24;99795.19;5017960;28;1979;-43
2022/03/31 04:48:16;;;;;;;;;;;;;;;24.49;28.41;99781.28;5018776;28;905;-43
2022/03/31 04:50:41;;;;;;;;;;;;;;;24.51;28.39;99785.44;5017703;28;889;-43
2022/03/31 04:53:07;;;;;;;;;;;;;;;24.51;28.51;99781.91;5028724;28;1414;-43
2022/03/31 04:55:33;;;;;;;;;;;;;;;24.17;28.72;99787.69;5023898;28;888;-43
2022/03/31 04:57:58;;;;;;;;;;;;;;;24.56;27.96;99784.84;5021754;28;807;-43
2022/03/31 05:00:23;;;;;;;;;;;;;;;24.52;27.82;99787.13;5019795;28;890;-43
2022/03/31 05:02:49;;;;;;;;;;;;;;;24.63;27.52;99793.00;5022753;28;786;-43
2022/03/31 05:05:15;;;;;;;;;;;;;;;24.66;27.56;99792.63;5020247;28;1902;-43
2022/03/31 05:07:41;;;;;;;;;;;;;;;24.47;27.81;99800.28;5017627;28;854;-43
2022/03/31 05:10:06;;;;;;;;;;;;;;;24.50;27.81;99789.16;5020170;28;987;-43
2022/03/31 05:12:32;;;;;;;;;;;;;;;24.37;28.37;99783.63;5020239;28;1034;-43
2022/03/31 05:14:57;;;;;;;;;;;;;;;24.35;28.54;99786.50;5020588;28;909;-43
2022/03/31 05:17:22;;;;;;;;;;;;;;;21.54;32.50;99776.41;5017144;28;850;-42
2022/03/31 05:19:47;;;;;;;;;;;;;;;19.65;37.31;99772.81;5017805;28;759;-43
2022/03/31 05:22:13;;;;;;;;;;;;;;;19.53;37.73;99769.59;5017627;28;742;-42
2022/03/31 05:24:38;;;;;;;;;;;;;;;19.38;37.97;99771.16;5018162;28;1894;-42
2022/03/31 05:27:04;;;;;;;;;;;;;;;19.29;38.29;99765.75;5021398;28;878;-43
2022/03/31 05:29:29;;;;;;;;;;;;;;;19.01;38.81;99754.31;5017262;28;1187;-42
2022/03/31 05:31:55;;;;;;;;;;;;;;;20.24;37.34;99765.16;5016915;28;789;-43
2022/03/31 05:34:21;;;;;;;;;;;;;;;22.06;34.30;99771.63;5016934;28;798;-42
2022/03/31 05:36:47;;;;;;;;;;;;;;;21.94;34.39;99775.69;5016673;28;906;-43
2022/03/31 05:39:12;;;;;;;;;;;;;;;20.81;36.42;99774.34;5023271;28;1152;-42
2022/03/31 05:41:37;;;;;;;;;;;;;;;20.34;37.68;99773.03;5017294;28;861;-42
2022/03/31 05:44:03;;;;;;;;;;;;;;;21.69;35.03;99767.69;5016807;28;866;-42
2022/03/31 05:46:29;;;;;;;;;;;;;;;22.88;33.06;99774.09;5016789;28;1968;-40
2022/03/31 05:48:54;;;;;;;;;;;;;;;23.53;31.48;99764.88;5016840;28;802;-43
2022/03/31 05:51:19;;;;;;;;;;;;;;;23.41;29.57;99765.31;5018653;28;993;-39
2022/03/31 05:53:45;;;;;;;;;;;;;;;20.02;38.12;99762.06;5020759;28;880;-41
2022/03/31 05:56:10;;;;;;;;;;;;;;;22.19;34.13;99762.22;5035425;28;1191;-42
2022/03/31 05:58:35;;;;;;;;;;;;;;;23.45;31.82;99761.25;5018828;28;856;-42
2022/03/31 06:01:01;;;;;;;;;;;;;;;20.31;38.18;99755.50;5022077;28;1121;-40
2022/03/31 06:03:26;;;;;;;;;;;;;;;21.52;35.84;99765.03;5025814;28;1179;-40
2022/03/31 06:05:51;;;;;;;;;;;;;;;22.82;32.83;99764.91;5016504;28;1894;-37
2022/03/31 06:08:17;;;;;;;;;;;;;;;20.82;37.02;99777.88;5016439;28;770;-39
2022/03/31 06:10:42;;;;;;;;;;;;;;;21.31;36.37;99774.41;5019332;28;865;-37
2022/03/31 06:13:09;;;;;;;;;;;;;;;23.31;32.02;99764.69;5021441;28;1097;-34
2022/03/31 06:15:35;;;;;;;;;;;;;;;21.02;36.78;99749.03;5016523;28;855;-42
2022/03/31 06:18:00;;;;;;;;;;;;;;;19.71;39.49;99747.34;5019751;28;988;-40
2022/03/31 06:20:27;;;;;;;;;;;;;;;19.50;40.47;99759.22;5016042;28;826;-39
2022/03/31 06:22:53;;;;;;;;;;;;;;;19.74;39.94;99760.38;5015851;28;854;-34
2022/03/31 06:25:20;;;;;;;;;;;;;;;21.38;36.40;99774.56;5028333;28;1969;-37
2022/03/31 06:27:46;;;;;;;;;;;;;;;22.35;34.19;99767.50;5025423;28;790;-37
2022/03/31 06:30:11;;;;;;;;;;;;;;;22.66;33.21;99767.69;5028001;28;910;-39
2022/03/31 06:32:37;;;;;;;;;;;;;;;23.19;32.97;99767.00;5020559;28;735;-37
2022/03/31 06:35:02;;;;;;;;;;;;;;;19.82;39.54;99760.44;5035110;28;1100;-37
2022/03/31 06:37:28;;;;;;;;;;;;;;;21.32;36.85;99753.84;5036471;28;1384;-34
2022/03/31 06:39:53;;;;;;;;;;;;;;;22.57;34.23;99785.66;5026461;28;1310;-37
2022/03/31 06:42:18;;;;;;;;;;;;;;;22.98;33.25;99787.25;5025572;28;1399;-35
2022/03/31 06:44:43;;;;;;;;;;;;;;;23.05;33.42;99774.81;5033136;28;1956;-38
2022/03/31 06:47:09;;;;;;;;;;;;;;;23.17;33.08;99769.84;5033935;28;861;-38
2022/03/31 06:49:34;;;;;;;;;;;;;;;23.16;33.13;99780.75;5019760;28;944;-38
2022/03/31 06:52:00;;;;;;;;;;;;;;;23.29;32.83;99802.44;5031063;28;786;-37
2022/03/31 06:54:26;;;;;;;;;;;;;;;23.37;32.74;99801.56;5025974;28;832;-37
2022/03/31 06:56:52;;;;;;;;;;;;;;;23.39;32.81;99809.44;5034096;28;1432;-37
2022/03/31 06:59:20;;;;;;;;;;;;;;;23.53;32.60;99799.75;5032954;28;1095;-39
2022/03/31 07:01:45;;;;;;;;;;;;;;;22.97;33.53;99807.88;5019674;28;866;-31
2022/03/31 07:04:11;;;;;;;;;;;;;;;22.91;34.02;99813.13;5020200;28;1898;-34
2022/03/31 07:06:36;;;;;;;;;;;;;;;22.68;34.15;99814.78;5020033;28;865;-35
2022/03/31 07:09:01;;;;;;;;;;;;;;;23.26;33.29;99813.53;5022803;28;937;-42
2022/03/31 07:11:27;;;;;;;;;;;;;;;23.78;32.21;99811.13;5031460;28;1112;-41
2022/03/31 07:13:52;;;;;;;;;;;;;;;23.84;32.29;99823.78;5034974;28;1177;-43
2022/03/31 07:16:18;;;;;;;;;;;;;;;24.03;31.57;99808.16;5019999;28;810;-42
2022/03/31 07:18:43;;;;;;;;;;;;;;;24.09;31.54;99793.97;5019329;28;886;-44
2022/03/31 07:21:09;;;;;;;;;;;;;;;24.10;31.90;99805.56;5025386;28;894;-42
2022/03/31 07:23:34;;;;;;;;;;;;;;;24.39;31.25;99811.97;5019171;28;833;-42
2022/03/31 07:25:59;;;;;;;;;;;;;;;24.47;31.04;99808.34;5035267;28;1905;-42
2022/03/31 07:28:25;;;;;;;;;;;;;;;24.63;30.80;99801.91;5034799;28;1088;-42
2022/03/31 07:30:50;;;;;;;;;;;;;;;24.59;30.80;99811.38;5038045;28;1310;-43
2022/03/31 07:33:17;;;;;;;;;;;;;;;24.76;30.46;99816.50;5032942;28;906;-43
2022/03/31 07:35:42;;;;;;;;;;;;;;;24.61;30.87;99805.81;5037072;28;1174;-43
2022/03/31 07:38:08;;;;;;;;;;;;;;;24.83;30.18;99814.75;5037773;28;1291;-43
2022/03/31 07:40:34;;;;;;;;;;;;;;;24.94;30.03;99816.16;5031686;28;1013;-43
2022/03/31 07:43:01;;;;;;;;;;;;;;;25.10;29.61;99812.38;5037680;28;1282;-43
2022/03/31 07:45:28;;;;;;;;;;;;;;;25.06;30.27;99808.38;5037585;28;1918;-42
2022/03/31 07:47:53;;;;;;;;;;;;;;;24.98;30.60;99816.56;5035624;28;982;-43
2022/03/31 07:50:18;;;;;;;;;;;;;;;24.88;30.66;99809.63;5034006;28;1155;-43
2022/03/31 07:52:44;;;;;;;;;;;;;;;25.04;30.13;99808.56;5037796;28;1148;-41
2022/03/31 07:55:09;;;;;;;;;;;;;;;25.26;30.15;99824.72;5027001;28;943;-43
2022/03/31 07:57:35;;;;;;;;;;;;;;;25.39;29.31;99813.22;5018844;28;896;-43
2022/03/31 08:00:00;;;;;;;;;;;;;;;25.36;29.95;99816.31;5020992;28;905;-43
2022/03/31 08:02:25;;;;;;;;;;;;;;;25.43;29.76;99808.28;5018314;28;873;-43
2022/03/31 08:04:54;;;;;;;;;;;;;;;25.70;29.71;99802.31;5018882;28;2116;-43
2022/03/31 08:07:19;;;;;;;;;;;;;;;25.73;28.99;99802.75;5018725;28;874;-44
2022/03/31 08:09:44;;;;;;;;;;;;;;;25.68;29.46;99810.59;5022375;28;1367;-43
2022/03/31 08:12:10;;;;;;;;;;;;;;;25.78;29.61;99810.25;5024846;28;926;-43
2022/03/31 08:14:35;;;;;;;;;;;;;;;25.91;29.44;99815.72;5020600;28;900;-43
2022/03/31 08:17:01;;;;;;;;;;;;;;;26.07;28.76;99829.06;5036568;28;1173;-43
2022/03/31 08:19:30;;;;;;;;;;;;;;;25.91;29.29;99806.78;5037171;28;990;-44
2022/03/31 08:21:55;;;;;;;;;;;;;;;25.96;29.11;99814.31;5037802;28;820;-43
2022/03/31 08:24:20;;;;;;;;;;;;;;;25.83;29.21;99797.00;5032142;28;1964;-43
2022/03/31 08:26:46;;;;;;;;;;;;;;;25.78;29.59;99796.78;5033688;28;1248;-42
2022/03/31 08:29:11;;;;;;;;;;;;;;;25.93;29.05;99793.97;5031724;28;1349;-42
2022/03/31 08:31:37;;;;;;;;;;;;;;;26.13;28.72;99798.63;5034739;28;1295;-43
2022/03/31 08:34:02;;;;;;;;;;;;;;;26.22;28.73;99785.81;5028219;28;1191;-44
2022/03/31 08:36:29;;;;;;;;;;;;;;;25.78;29.59;99792.22;5018889;28;779;-43
2022/03/31 08:38:54;;;;;;;;;;;;;;;23.53;32.92;99776.44;5027794;28;1118;-43
2022/03/31 08:41:19;;;;;;;;;;;;;;;24.32;32.16;99800.31;5018475;28;857;-43
2022/03/31 08:43:44;;;;;;;;;;;;;;;24.95;30.76;99796.28;5016670;28;818;-43
2022/03/31 08:46:10;;;;;;;;;;;;;;;25.23;30.38;99790.13;5018240;28;1918;-42
2022/03/31 08:48:38;;;;;;;;;;;;;;;25.27;30.15;99788.72;5019310;28;1392;-43
2022/03/31 08:51:04;;;;;;;;;;;;;;;25.56;29.59;99788.72;5020966;28;1075;-43
2022/03/31 08:53:30;;;;;;;;;;;;;;;25.70;29.57;99792.38;5025713;28;926;-43
2022/03/31 08:55:55;;;;;;;;;;;;;;;25.74;29.32;99790.13;5034059;28;1096;-43
2022/03/31 08:58:20;;;;;;;;;;;;;;;25.55;29.89;99773.59;5032312;28;1314;-39
2022/03/31 09:00:46;;;;;;;;;;;;;;;25.71;29.83;99774.38;5017942;28;982;-42
2022/03/31 09:03:11;;;;;;;;;;;;;;;25.86;29.34;99774.25;5022911;28;802;-41
2022/03/31 09:05:37;;;;;;;;;;;;;;;25.82;29.62;99771.13;5017935;28;1969;-38
2022/03/31 09:08:05;;;;;;;;;;;;;;;25.80;29.44;99774.00;5022040;28;1394;-42
2022/03/31 09:10:34;;;;;;;;;;;;;;;25.96;29.20;99768.50;5020907;28;1014;-40
2022/03/31 09:13:01;;;;;;;;;;;;;;;25.97;28.75;99756.69;5023955;28;1140;-43
2022/03/31 09:15:26;;;;;;;;;;;;;;;26.11;28.94;99766.47;5032585;28;1326;-43
2022/03/31 09:17:52;;;;;;;;;;;;;;;26.06;29.25;99762.75;5015925;28;818;-43
2022/03/31 09:20:17;;;;;;;;;;;;;;;26.34;28.57;99767.25;5017967;28;814;-44
2022/03/31 09:22:44;;;;;;;;;;;;;;;26.04;29.24;99774.53;5031051;28;1192;-43
2022/03/31 09:25:10;;;;;;;;;;;;;;;26.04;29.18;99782.63;5032996;28;1894;-43
2022/03/31 09:27:36;;;;;;;;;;;;;;;25.94;29.63;99794.81;5031682;28;1410;-42
2022/03/31 09:30:05;;;;;;;;;;;;;;;26.07;29.65;99775.19;5033872;28;1096;-42
2022/03/31 09:32:30;;;;;;;;;;;;;;;25.88;29.92;99780.25;5017768;28;766;-41
2022/03/31 09:35:03;;;;;;;;;;;;;;;25.74;30.01;99782.84;5029891;28;1287;-43
2022/03/31 09:37:31;;;;;;;;;;;;;;;25.91;29.81;99766.38;5033144;28;1184;-43
2022/03/31 09:39:57;;;;;;;;;;;;;;;25.97;29.49;99767.47;5030765;28;1116;-43
2022/03/31 09:42:22;;;;;;;;;;;;;;;25.92;30.07;99762.66;5032681;28;1275;-43
2022/03/31 09:44:57;;;;;;;;;;;;;;;26.13;29.56;99766.28;5033808;28;1968;-40
2022/03/31 09:47:22;;;;;;;;;;;;;;;26.58;28.82;99755.06;5026327;28;1119;-39
2022/03/31 09:49:54;;;;;;;;;;;;;;;26.68;28.91;99756.53;5034626;28;1248;-39
2022/03/31 09:52:19;;;;;;;;;;;;;;;26.26;29.55;99749.31;5017557;28;858;-42
2022/03/31 09:54:45;;;;;;;;;;;;;;;26.04;29.64;99758.38;5021664;28;806;-39
2022/03/31 09:57:11;;;;;;;;;;;;;;;26.01;29.91;99766.00;5016175;28;1581;-39
2022/03/31 09:59:41;;;;;;;;;;;;;;;26.01;29.63;99747.16;5016013;28;882;-41
2022/03/31 10:02:06;;;;;;;;;;;;;;;26.11;29.94;99746.81;5017949;28;790;-41
2022/03/31 10:04:32;;;;;;;;;;;;;;;26.08;29.76;99739.09;5028715;28;1947;-42
2022/03/31 10:06:58;;;;;;;;;;;;;;;26.32;29.39;99715.34;5024974;28;1258;-43
2022/03/31 10:09:23;;;;;;;;;;;;;;;26.60;29.00;99709.00;5027028;28;994;-35
2022/03/31 10:11:57;;;;;;;;;;;;;;;26.51;29.17;99706.50;5036134;28;738;-40
2022/03/31 10:14:33;;;;;;;;;;;;;;;26.45;29.29;99704.63;5035103;28;1045;-37
2022/03/31 10:17:00;;;;;;;;;;;;;;;25.87;30.27;99700.47;5032838;28;1258;-43
2022/03/31 10:19:29;;;;;;;;;;;;;;;26.50;29.17;99704.84;5030456;28;897;-43
2022/03/31 10:22:04;;;;;;;;;;;;;;;26.59;28.99;99699.28;5031787;28;863;-43
2022/03/31 10:24:42;;;;;;;;;;;;;;;26.90;28.37;99703.22;5020788;28;1956;-36
2022/03/31 10:27:27;;;;;;;;;;;;;;;26.78;29.12;99711.94;5028401;28;1019;-40
2022/03/31 10:29:53;;;;;;;;;;;;;;;27.45;28.01;99713.00;5030890;28;1938;-43
2022/03/31 10:32:22;;;;;;;;;;;;;;;27.36;27.93;99719.66;5022166;28;1074;-42
2022/03/31 10:34:51;;;;;;;;;;;;;;;27.34;27.82;99725.25;5017629;28;1015;-43
2022/03/31 10:37:17;;;;;;;;;;;;;;;27.33;28.14;99737.09;5021469;28;1135;-42
2022/03/31 10:39:52;;;;;;;;;;;;;;;27.24;28.07;99716.75;5018820;28;838;-42
2022/03/31 10:42:18;;;;;;;;;;;;;;;27.30;28.38;99712.38;5017225;28;831;-41
2022/03/31 10:44:43;;;;;;;;;;;;;;;27.42;27.84;99689.09;5019336;28;1940;-43
2022/03/31 10:47:12;;;;;;;;;;;;;;;27.28;28.22;99691.00;5020834;28;898;-41
2022/03/31 10:49:37;;;;;;;;;;;;;;;27.47;28.06;99667.69;5019392;28;945;-40
2022/03/31 10:52:17;;;;;;;;;;;;;;;27.55;27.82;99666.63;5025937;28;940;-42
2022/03/31 10:54:42;;;;;;;;;;;;;;;27.36;27.94;99660.25;5023310;28;829;-43
2022/03/31 10:57:12;;;;;;;;;;;;;;;27.00;28.93;99624.56;5016677;28;794;-43
2022/03/31 10:59:37;;;;;;;;;;;;;;;27.31;28.01;99625.75;5016730;28;850;-44
2022/03/31 11:02:09;;;;;;;;;;;;;;;27.38;27.91;99631.16;5016477;28;807;-43
2022/03/31 11:04:44;;;;;;;;;;;;;;;27.54;27.54;99639.84;5016571;28;1890;-43
2022/03/31 11:07:12;;;;;;;;;;;;;;;27.49;27.68;99643.19;5016364;28;1252;-44
2022/03/31 11:09:37;;;;;;;;;;;;;;;27.45;27.27;99639.22;5022072;28;867;-42
2022/03/31 11:12:04;;;;;;;;;;;;;;;27.46;27.81;99651.72;5018238;28;825;-41
2022/03/31 11:14:29;;;;;;;;;;;;;;;27.74;27.26;99659.53;5026408;28;1014;-43
2022/03/31 11:16:55;;;;;;;;;;;;;;;27.81;27.28;99654.09;5023726;28;1117;-43
2022/03/31 11:19:20;;;;;;;;;;;;;;;27.74;27.31;99653.31;5019137;28;1210;-42
2022/03/31 11:21:45;;;;;;;;;;;;;;;27.85;27.26;99665.31;5024100;28;1077;-43
2022/03/31 11:24:11;;;;;;;;;;;;;;;28.02;26.73;99670.22;5026453;28;1049;-43
2022/03/31 11:26:40;;;;;;;;;;;;;;;27.73;27.42;99682.19;5019932;28;1902;-42
2022/03/31 11:29:12;;;;;;;;;;;;;;;27.91;27.04;99685.25;5020079;28;769;-43
2022/03/31 11:31:50;;;;;;;;;;;;;;;27.80;27.00;99687.56;5020224;28;830;-43
2022/03/31 11:34:21;;;;;;;;;;;;;;;27.71;27.07;99670.75;5019806;28;932;-43
2022/03/31 11:36:46;;;;;;;;;;;;;;;27.77;27.47;99685.31;5023075;28;877;-43
2022/03/31 11:39:12;;;;;;;;;;;;;;;27.71;27.38;99680.75;5019687;28;1204;-43
2022/03/31 11:41:38;;;;;;;;;;;;;;;27.75;27.07;99673.88;5019366;28;890;-43
2022/03/31 11:44:04;;;;;;;;;;;;;;;27.79;27.12;99672.41;5023093;28;798;-43
2022/03/31 11:46:49;;;;;;;;;;;;;;;27.72;27.61;99674.28;5038268;28;1913;-43
2022/03/31 11:49:17;;;;;;;;;;;;;;;27.61;27.32;99675.78;5032404;28;793;-43
2022/03/31 11:51:49;;;;;;;;;;;;;;;27.62;27.40;99674.72;5038518;28;762;-42
2022/03/31 11:54:15;;;;;;;;;;;;;;;27.49;27.71;99692.59;5038125;28;825;-42
2022/03/31 11:56:40;;;;;;;;;;;;;;;27.47;26.04;99689.31;5027236;28;1187;-43
2022/03/31 11:59:06;;;;;;;;;;;;;;;27.39;27.56;99676.84;5038410;28;925;-43
2022/03/31 12:01:32;;;;;;;;;;;;;;;27.38;27.76;99668.94;5032179;28;1084;-43
2022/03/31 12:03:57;;;;;;;;;;;;;;;27.31;28.09;99650.06;5038201;28;1041;-43
2022/03/31 12:06:22;;;;;;;;;;;;;;;27.69;27.21;99643.16;5038134;28;1967;-43
2022/03/31 12:08:48;;;;;;;;;;;;;;;27.44;27.60;99643.81;5037795;28;900;-43
2022/03/31 12:11:13;;;;;;;;;;;;;;;27.28;28.03;99650.50;5020586;28;893;-43
2022/03/31 12:13:49;;;;;;;;;;;;;;;27.46;28.22;99651.72;5029880;28;825;-43
2022/03/31 12:16:14;;;;;;;;;;;;;;;27.38;28.05;99671.66;5019641;28;826;-43
2022/03/31 12:18:41;;;;;;;;;;;;;;;27.36;28.06;99657.56;5018874;28;771;-43
2022/03/31 12:21:07;;;;;;;;;;;;;;;27.22;28.62;99648.63;5018822;28;805;-43
2022/03/31 12:23:32;;;;;;;;;;;;;;;27.04;28.81;99631.25;5019397;28;1321;-34
2022/03/31 12:25:58;;;;;;;;;;;;;;;26.85;28.96;99620.22;5020950;28;1953;-36
2022/03/31 12:28:23;;;;;;;;;;;;;;;26.93;29.12;99627.25;5020715;28;873;-35
2022/03/31 12:30:49;;;;;;;;;;;;;;;26.84;29.33;99642.81;5018954;28;946;-33
2022/03/31 12:33:15;;;;;;;;;;;;;;;26.92;28.94;99641.81;5017967;28;739;-33
2022/03/31 12:35:41;;;;;;;;;;;;;;;26.78;29.11;99667.94;5025956;28;1430;-34
2022/03/31 12:38:07;;;;;;;;;;;;;;;26.72;29.15;99631.00;5021695;28;1434;-34
2022/03/31 12:40:33;;;;;;;;;;;;;;;26.96;28.87;99607.13;5033804;28;1128;-35
2022/03/31 12:42:59;;;;;;;;;;;;;;;26.82;29.05;99614.41;5037609;28;862;-38
2022/03/31 12:45:24;;;;;;;;;;;;;;;26.69;29.31;99626.88;5037553;28;1902;-35
2022/03/31 12:47:50;;;;;;;;;;;;;;;26.78;29.08;99617.53;5037713;28;804;-33
2022/03/31 12:50:19;;;;;;;;;;;;;;;26.81;29.41;99621.66;5037728;28;813;-34
2022/03/31 12:52:58;;;;;;;;;;;;;;;26.91;29.02;99607.75;5028846;28;883;-37
2022/03/31 12:55:42;;;;;;;;;;;;;;;26.70;29.57;99624.97;5027494;28;978;-37
2022/03/31 12:58:08;;;;;;;;;;;;;;;26.69;29.85;99626.88;5024940;28;844;-33
2022/03/31 13:00:33;;;;;;;;;;;;;;;26.82;29.22;99631.44;5018616;28;842;-32